»·PEaware :: AAL1933 KPHX-KSFO

AAL1933 :: KPHX-KSFO

FLIGHT INFORMATION

Flight Status: Arrived
Operator:
American Airlines
More flights by this operator :: More flights under this callsign
Pilot: Varun Shekar (14197)
Aircraft: BOEING 737-800
(B738)
More flights by this aircraft type
Origin: KPHX Phoenix Sky Harbor Intl
United States
Destination: KSFO San Francisco Intl
United States
More flights between these airports :: More routes between these airports
Route: +IZZZO6 HRRBR CURIV J212 DECAS PMD AVE MAKRS SERFR SERFR2
File this flight plan on PilotEdge
Remarks:
Altitude:
(Current/Filed)
34,000ft
Speed:
(Current/Filed)
459kts
Departed: 17-Jun-17 09:19 PM
Arrived: 17-Jun-17 10:48 PM
Distance/Time
Traveled:
565nm/1:29
Distance/Time
To Go:
Arrived

Flight Plot

Page will automatically refresh every two minutes.

Flight plan parsing failed; only flown route is shown


Map Options




Map Legend


Flown Route
Filed Route
Departure Airport
Arrival Airport
Navaid (VOR, NDB)
Fix

Horizontal Profiles

Position Reports

Time Latitude Longitude Heading Altitude Ground
Speed
17-Jun-17 20:33 33.438333 -111.996637 209 1142ft 0kts
17-Jun-17 20:34 33.438333 -111.996637 209 1142ft 0kts
17-Jun-17 20:35 33.438333 -111.996637 209 1142ft 0kts
17-Jun-17 20:36 33.438333 -111.996637 209 1142ft 0kts
17-Jun-17 20:37 33.438333 -111.996637 209 1142ft 0kts
17-Jun-17 20:38 33.438333 -111.996637 209 1142ft 0kts
17-Jun-17 20:39 33.438333 -111.996637 209 1142ft 0kts
17-Jun-17 20:40 33.438333 -111.996637 209 1142ft 0kts
17-Jun-17 20:41 33.438333 -111.996637 209 1142ft 0kts
17-Jun-17 20:41 33.438333 -111.996637 209 1142ft 0kts
17-Jun-17 20:42 33.438333 -111.996637 209 1142ft 0kts
17-Jun-17 20:44 33.438333 -111.996637 209 1142ft 0kts
17-Jun-17 20:44 33.438333 -111.996637 209 1142ft 0kts
17-Jun-17 20:45 33.438333 -111.996637 209 1142ft 0kts
17-Jun-17 20:46 33.438333 -111.996637 209 1142ft 0kts
17-Jun-17 20:47 33.438333 -111.996637 209 1142ft 0kts
17-Jun-17 20:48 33.438333 -111.996637 209 1142ft 0kts
17-Jun-17 20:50 33.438333 -111.996637 209 1142ft 0kts
17-Jun-17 20:51 33.438333 -111.996637 209 1142ft 0kts
17-Jun-17 20:52 33.438333 -111.996637 209 1142ft 0kts
17-Jun-17 20:53 33.438333 -111.996637 209 1142ft 0kts
17-Jun-17 20:54 33.438333 -111.996637 209 1142ft 0kts
17-Jun-17 20:55 33.438333 -111.996637 209 1142ft 0kts
17-Jun-17 20:56 33.438333 -111.996637 209 1142ft 0kts
17-Jun-17 20:57 33.438333 -111.996637 209 1142ft 0kts
17-Jun-17 20:58 33.438333 -111.996637 209 1142ft 0kts
17-Jun-17 20:59 33.438333 -111.996637 209 1142ft 0kts
17-Jun-17 21:00 33.438333 -111.996637 209 1142ft 0kts
17-Jun-17 21:01 33.438333 -111.996637 209 1142ft 0kts
17-Jun-17 21:02 33.438333 -111.996637 209 1142ft 0kts
17-Jun-17 21:03 33.438333 -111.996637 209 1142ft 0kts
17-Jun-17 21:04 33.438333 -111.996637 209 1142ft 0kts
17-Jun-17 21:05 33.438333 -111.996637 209 1142ft 0kts
17-Jun-17 21:06 33.438333 -111.996637 209 1142ft 0kts
17-Jun-17 21:07 33.438333 -111.996637 209 1142ft 0kts
17-Jun-17 21:08 33.438333 -111.996637 209 1142ft 0kts
17-Jun-17 21:09 33.438333 -111.996637 209 1142ft 0kts
17-Jun-17 21:10 33.438333 -111.996637 209 1142ft 0kts
17-Jun-17 21:11 33.438333 -111.996637 209 1142ft 0kts
17-Jun-17 21:12 33.438333 -111.996637 209 1142ft 0kts
17-Jun-17 21:13 33.438478 -111.996531 221 1142ft 2kts
17-Jun-17 21:14 33.438588 -111.996220 271 1142ft 0kts
17-Jun-17 21:15 33.438589 -111.996223 271 1142ft 0kts
17-Jun-17 21:16 33.439036 -111.998166 322 1142ft 9kts
17-Jun-17 21:17 33.439760 -111.995745 90 1142ft 9kts
17-Jun-17 21:18 33.439729 -111.991478 87 1142ft 1kts
17-Jun-17 21:19 33.440134 -111.990808 333 1142ft 0kts
17-Jun-17 21:20 33.440935 -111.991215 256 1142ft 6kts
17-Jun-17 21:21 33.440850 -112.023190 270 1399ft 191kts
17-Jun-17 21:22 33.441687 -112.094066 271 3745ft 232kts
17-Jun-17 21:23 33.443130 -112.175841 271 6241ft 252kts
17-Jun-17 21:24 33.444931 -112.266221 271 8657ft 280kts
17-Jun-17 21:25 33.446616 -112.362103 271 11137ft 300kts
17-Jun-17 21:26 33.448298 -112.473358 270 12112ft 367kts
17-Jun-17 21:27 33.450140 -112.600388 271 14138ft 388kts
17-Jun-17 21:28 33.451932 -112.732225 270 16283ft 401kts
17-Jun-17 21:29 33.464528 -112.866130 282 18220ft 412kts
17-Jun-17 21:30 33.490210 -113.001776 282 19910ft 425kts
17-Jun-17 21:31 33.516075 -113.141001 282 21536ft 435kts
17-Jun-17 21:32 33.542694 -113.282982 282 23460ft 432kts
17-Jun-17 21:33 33.568299 -113.423431 281 25126ft 433kts
17-Jun-17 21:34 33.594118 -113.563495 282 26851ft 430kts
17-Jun-17 21:35 33.621022 -113.707986 282 27194ft 458kts
17-Jun-17 21:36 33.649188 -113.861096 282 27760ft 473kts
17-Jun-17 21:37 33.677275 -114.014593 282 29026ft 470kts
17-Jun-17 21:38 33.705098 -114.167900 282 30212ft 467kts
17-Jun-17 21:39 33.732995 -114.319742 281 31330ft 465kts
17-Jun-17 21:40 33.760086 -114.471252 281 32394ft 463kts
17-Jun-17 21:41 33.778776 -114.623536 273 33392ft 461kts
17-Jun-17 21:42 33.786666 -114.777636 273 33992ft 461kts
17-Jun-17 21:43 33.794943 -114.930741 273 33999ft 459kts
17-Jun-17 21:44 33.817811 -115.081459 287 34000ft 459kts
17-Jun-17 21:45 33.859162 -115.226546 288 33999ft 459kts
17-Jun-17 21:46 33.900412 -115.371894 288 33999ft 460kts
17-Jun-17 21:48 33.941872 -115.517914 288 33999ft 460kts
17-Jun-17 21:49 33.983246 -115.663705 288 33999ft 460kts
17-Jun-17 21:50 34.024315 -115.809684 288 33999ft 460kts
17-Jun-17 21:51 34.065162 -115.955794 288 33999ft 460kts
17-Jun-17 21:52 34.105932 -116.102441 288 33999ft 460kts
17-Jun-17 21:53 34.146414 -116.248834 288 33999ft 460kts
17-Jun-17 21:54 34.186743 -116.395446 288 33999ft 460kts
17-Jun-17 21:55 34.227020 -116.542643 287 33999ft 460kts
17-Jun-17 21:56 34.266999 -116.689532 287 33999ft 460kts
17-Jun-17 21:57 34.306796 -116.836534 287 33999ft 460kts
17-Jun-17 21:58 34.346525 -116.984073 287 33999ft 461kts
17-Jun-17 21:59 34.386011 -117.131497 287 33999ft 460kts
17-Jun-17 22:00 34.425268 -117.278855 287 33999ft 460kts
17-Jun-17 22:01 34.464507 -117.426941 287 33999ft 460kts
17-Jun-17 22:02 34.503563 -117.575130 287 33999ft 465kts
17-Jun-17 22:03 34.542930 -117.724451 287 33999ft 465kts
17-Jun-17 22:04 34.582213 -117.874209 287 33999ft 465kts
17-Jun-17 22:05 34.621344 -118.023758 290 33999ft 465kts
17-Jun-17 22:06 34.684291 -118.160229 303 33999ft 465kts
17-Jun-17 22:07 34.755281 -118.292104 303 33999ft 465kts
17-Jun-17 22:08 34.825993 -118.423506 303 33999ft 465kts
17-Jun-17 22:09 34.897101 -118.554942 303 33999ft 465kts
17-Jun-17 22:10 34.968120 -118.687148 303 33999ft 465kts
17-Jun-17 22:11 35.038802 -118.819354 302 33999ft 465kts
17-Jun-17 22:12 35.109226 -118.951614 302 33999ft 465kts
17-Jun-17 22:13 35.179761 -119.084597 302 33999ft 465kts
17-Jun-17 22:14 35.249948 -119.217432 302 33999ft 465kts
17-Jun-17 22:15 35.319969 -119.350460 302 33999ft 465kts
17-Jun-17 22:16 35.389802 -119.483643 302 33999ft 465kts
17-Jun-17 22:17 35.459703 -119.617471 302 33999ft 465kts
17-Jun-17 22:18 35.529416 -119.750986 302 33999ft 465kts
17-Jun-17 22:19 35.598700 -119.884958 302 33999ft 465kts
17-Jun-17 22:20 35.650372 -120.029339 280 34003ft 465kts
17-Jun-17 22:21 35.667658 -120.186880 276 33999ft 465kts
17-Jun-17 22:22 35.687247 -120.343722 286 34000ft 465kts
17-Jun-17 22:23 35.738343 -120.490168 294 33999ft 465kts
17-Jun-17 22:24 35.793239 -120.634227 294 33999ft 465kts
17-Jun-17 22:25 35.848074 -120.778436 294 33999ft 465kts
17-Jun-17 22:26 35.902984 -120.923150 294 33999ft 465kts
17-Jun-17 22:27 35.957615 -121.067679 294 33999ft 465kts
17-Jun-17 22:28 36.011812 -121.212600 294 32067ft 466kts
17-Jun-17 22:29 36.072711 -121.354455 311 28806ft 470kts
17-Jun-17 22:30 36.177906 -121.450780 328 25371ft 472kts
17-Jun-17 22:31 36.287510 -121.535717 327 22635ft 458kts
17-Jun-17 22:32 36.392422 -121.618033 327 20946ft 424kts
17-Jun-17 22:33 36.487469 -121.692955 327 20068ft 388kts
17-Jun-17 22:34 36.576479 -121.763104 327 18349ft 368kts
17-Jun-17 22:35 36.660696 -121.829920 327 16640ft 354kts
17-Jun-17 22:36 36.744486 -121.892176 338 14987ft 347kts
17-Jun-17 22:37 36.836897 -121.921074 347 13550ft 339kts
17-Jun-17 22:38 36.928379 -121.946387 347 12161ft 332kts
17-Jun-17 22:39 37.012533 -121.975849 342 11614ft 291kts
17-Jun-17 22:40 37.087356 -122.005575 342 10528ft 278kts
17-Jun-17 22:41 37.160643 -122.034450 342 9308ft 273kts
17-Jun-17 22:42 37.232801 -122.062838 342 8118ft 269kts
17-Jun-17 22:43 37.303626 -122.090702 342 6963ft 264kts
17-Jun-17 22:44 37.373221 -122.118051 342 5846ft 260kts
17-Jun-17 22:45 37.443142 -122.145546 342 4473ft 265kts
17-Jun-17 22:46 37.516183 -122.168906 343 3165ft 261kts
17-Jun-17 22:47 37.556166 -122.225992 297 2308ft 187kts
17-Jun-17 22:48 37.577160 -122.276074 297 1453ft 147kts
17-Jun-17 22:49 37.596315 -122.321681 297 675ft 146kts
17-Jun-17 22:50 37.615175 -122.366609 297 21ft 130kts
17-Jun-17 22:51 37.619017 -122.376660 274 20ft 19kts
17-Jun-17 22:52 37.619009 -122.377619 265 20ft 0kts
17-Jun-17 22:53 37.619238 -122.381161 298 20ft 14kts
17-Jun-17 22:54 37.620640 -122.384808 244 20ft 4kts
17-Jun-17 22:55 37.619598 -122.384828 118 20ft 0kts
17-Jun-17 22:56 37.619598 -122.384828 118 20ft 0kts
17-Jun-17 22:57 37.619598 -122.384828 118 20ft 0kts

Navigation Log

Ident Type
Flight plan parsing failed, navigation log unavailable